sensor_id;sensor_type;location;lat;lon;timestamp;P1;durP1;ratioP1;P2;durP2;ratioP2
24859;SDS011;12936;52.006;4.350;2022-09-01T00:01:27;2.55;;;1.23;;
24859;SDS011;12936;52.006;4.350;2022-09-01T00:03:57;3.05;;;1.00;;
24859;SDS011;12936;52.006;4.350;2022-09-01T00:06:29;3.35;;;1.20;;
24859;SDS011;12936;52.006;4.350;2022-09-01T00:09:00;6.15;;;1.30;;
24859;SDS011;12936;52.006;4.350;2022-09-01T00:11:29;2.25;;;1.10;;
24859;SDS011;12936;52.006;4.350;2022-09-01T00:14:00;3.17;;;1.30;;
24859;SDS011;12936;52.006;4.350;2022-09-01T00:16:29;4.40;;;1.20;;
24859;SDS011;12936;52.006;4.350;2022-09-01T00:18:58;3.53;;;1.23;;
24859;SDS011;12936;52.006;4.350;2022-09-01T00:21:27;4.60;;;1.40;;
24859;SDS011;12936;52.006;4.350;2022-09-01T00:23:56;3.08;;;1.25;;
24859;SDS011;12936;52.006;4.350;2022-09-01T00:26:24;1.92;;;1.20;;
24859;SDS011;12936;52.006;4.350;2022-09-01T00:28:53;4.30;;;1.20;;
24859;SDS011;12936;52.006;4.350;2022-09-01T00:31:23;6.25;;;1.38;;
24859;SDS011;12936;52.006;4.350;2022-09-01T00:33:51;2.70;;;1.30;;
24859;SDS011;12936;52.006;4.350;2022-09-01T00:36:20;1.67;;;1.05;;
24859;SDS011;12936;52.006;4.350;2022-09-01T00:38:49;4.28;;;1.20;;
24859;SDS011;12936;52.006;4.350;2022-09-01T00:41:18;5.45;;;1.15;;
24859;SDS011;12936;52.006;4.350;2022-09-01T00:43:48;2.08;;;1.10;;
24859;SDS011;12936;52.006;4.350;2022-09-01T00:46:19;3.85;;;1.70;;
24859;SDS011;12936;52.006;4.350;2022-09-01T00:48:55;3.08;;;0.95;;
24859;SDS011;12936;52.006;4.350;2022-09-01T00:51:25;1.90;;;1.13;;
24859;SDS011;12936;52.006;4.350;2022-09-01T00:53:54;3.50;;;1.35;;
24859;SDS011;12936;52.006;4.350;2022-09-01T00:56:24;1.42;;;1.10;;
24859;SDS011;12936;52.006;4.350;2022-09-01T00:58:52;2.55;;;1.35;;
24859;SDS011;12936;52.006;4.350;2022-09-01T01:01:20;2.53;;;1.30;;
24859;SDS011;12936;52.006;4.350;2022-09-01T01:03:53;2.05;;;1.10;;
24859;SDS011;12936;52.006;4.350;2022-09-01T01:06:22;3.13;;;1.25;;
24859;SDS011;12936;52.006;4.350;2022-09-01T01:08:58;2.70;;;1.08;;
24859;SDS011;12936;52.006;4.350;2022-09-01T01:11:28;3.33;;;1.30;;
24859;SDS011;12936;52.006;4.350;2022-09-01T01:13:58;2.65;;;1.15;;
24859;SDS011;12936;52.006;4.350;2022-09-01T01:16:31;1.88;;;1.08;;
24859;SDS011;12936;52.006;4.350;2022-09-01T01:19:01;2.17;;;1.20;;
24859;SDS011;12936;52.006;4.350;2022-09-01T01:21:33;3.53;;;1.30;;
24859;SDS011;12936;52.006;4.350;2022-09-01T01:24:25;2.95;;;1.40;;
24859;SDS011;12936;52.006;4.350;2022-09-01T01:26:54;3.78;;;1.13;;
24859;SDS011;12936;52.006;4.350;2022-09-01T01:29:25;3.83;;;1.15;;
24859;SDS011;12936;52.006;4.350;2022-09-01T01:31:54;4.63;;;1.20;;
24859;SDS011;12936;52.006;4.350;2022-09-01T01:34:23;2.08;;;1.20;;
24859;SDS011;12936;52.006;4.350;2022-09-01T01:36:51;3.03;;;1.10;;
24859;SDS011;12936;52.006;4.350;2022-09-01T01:39:21;3.60;;;1.25;;
24859;SDS011;12936;52.006;4.350;2022-09-01T01:41:53;1.58;;;1.00;;
24859;SDS011;12936;52.006;4.350;2022-09-01T01:44:24;4.30;;;1.35;;
24859;SDS011;12936;52.006;4.350;2022-09-01T01:46:54;5.03;;;1.10;;
24859;SDS011;12936;52.006;4.350;2022-09-01T01:49:24;5.85;;;1.30;;
24859;SDS011;12936;52.006;4.350;2022-09-01T01:51:54;2.75;;;1.30;;
24859;SDS011;12936;52.006;4.350;2022-09-01T01:54:23;2.33;;;1.20;;
24859;SDS011;12936;52.006;4.350;2022-09-01T01:56:58;2.17;;;1.48;;
24859;SDS011;12936;52.006;4.350;2022-09-01T01:59:27;4.93;;;1.42;;
24859;SDS011;12936;52.006;4.350;2022-09-01T02:01:55;4.22;;;1.40;;
24859;SDS011;12936;52.006;4.350;2022-09-01T02:04:24;2.72;;;1.30;;
24859;SDS011;12936;52.006;4.350;2022-09-01T02:06:59;2.83;;;1.40;;
24859;SDS011;12936;52.006;4.350;2022-09-01T02:09:27;3.55;;;1.45;;
24859;SDS011;12936;52.006;4.350;2022-09-01T02:11:55;4.88;;;1.38;;
24859;SDS011;12936;52.006;4.350;2022-09-01T02:14:25;4.88;;;1.42;;
24859;SDS011;12936;52.006;4.350;2022-09-01T02:16:54;10.50;;;1.30;;
24859;SDS011;12936;52.006;4.350;2022-09-01T02:19:22;2.33;;;1.23;;
24859;SDS011;12936;52.006;4.350;2022-09-01T02:21:51;3.20;;;1.45;;
24859;SDS011;12936;52.006;4.350;2022-09-01T02:24:21;2.40;;;1.33;;
24859;SDS011;12936;52.006;4.350;2022-09-01T02:26:51;4.55;;;1.17;;
24859;SDS011;12936;52.006;4.350;2022-09-01T02:29:20;2.95;;;1.35;;
24859;SDS011;12936;52.006;4.350;2022-09-01T02:31:54;2.03;;;1.20;;
24859;SDS011;12936;52.006;4.350;2022-09-01T02:34:23;3.05;;;1.38;;
24859;SDS011;12936;52.006;4.350;2022-09-01T02:36:53;5.57;;;1.70;;
24859;SDS011;12936;52.006;4.350;2022-09-01T02:39:23;5.32;;;1.55;;
24859;SDS011;12936;52.006;4.350;2022-09-01T02:41:51;2.25;;;1.27;;
24859;SDS011;12936;52.006;4.350;2022-09-01T02:44:20;4.13;;;1.30;;
24859;SDS011;12936;52.006;4.350;2022-09-01T02:46:49;5.22;;;1.30;;
24859;SDS011;12936;52.006;4.350;2022-09-01T02:49:21;4.15;;;1.30;;
24859;SDS011;12936;52.006;4.350;2022-09-01T02:51:51;4.32;;;1.58;;
24859;SDS011;12936;52.006;4.350;2022-09-01T02:54:20;3.65;;;1.40;;
24859;SDS011;12936;52.006;4.350;2022-09-01T02:56:50;3.90;;;1.40;;
24859;SDS011;12936;52.006;4.350;2022-09-01T02:59:23;2.88;;;1.45;;
24859;SDS011;12936;52.006;4.350;2022-09-01T03:01:52;7.07;;;1.40;;
24859;SDS011;12936;52.006;4.350;2022-09-01T03:04:23;5.97;;;1.40;;
24859;SDS011;12936;52.006;4.350;2022-09-01T03:06:52;3.10;;;1.25;;
24859;SDS011;12936;52.006;4.350;2022-09-01T03:09:24;3.13;;;1.55;;
24859;SDS011;12936;52.006;4.350;2022-09-01T03:11:53;2.15;;;1.10;;
24859;SDS011;12936;52.006;4.350;2022-09-01T03:14:21;4.68;;;1.00;;
24859;SDS011;12936;52.006;4.350;2022-09-01T03:16:51;6.40;;;1.42;;
24859;SDS011;12936;52.006;4.350;2022-09-01T03:19:19;3.38;;;1.45;;
24859;SDS011;12936;52.006;4.350;2022-09-01T03:21:49;3.47;;;1.48;;
24859;SDS011;12936;52.006;4.350;2022-09-01T03:24:17;5.53;;;1.30;;
24859;SDS011;12936;52.006;4.350;2022-09-01T03:26:48;3.13;;;1.30;;
24859;SDS011;12936;52.006;4.350;2022-09-01T03:29:17;3.00;;;1.88;;
24859;SDS011;12936;52.006;4.350;2022-09-01T03:31:46;2.38;;;1.42;;
24859;SDS011;12936;52.006;4.350;2022-09-01T03:34:14;3.97;;;1.20;;
24859;SDS011;12936;52.006;4.350;2022-09-01T03:36:50;1.55;;;1.33;;
24859;SDS011;12936;52.006;4.350;2022-09-01T03:39:20;2.17;;;1.50;;
24859;SDS011;12936;52.006;4.350;2022-09-01T03:41:48;3.78;;;1.35;;
24859;SDS011;12936;52.006;4.350;2022-09-01T03:44:17;3.10;;;1.40;;
24859;SDS011;12936;52.006;4.350;2022-09-01T03:46:45;5.90;;;1.42;;
24859;SDS011;12936;52.006;4.350;2022-09-01T03:49:13;4.95;;;1.60;;
24859;SDS011;12936;52.006;4.350;2022-09-01T03:51:52;2.25;;;1.70;;
24859;SDS011;12936;52.006;4.350;2022-09-01T03:54:20;5.68;;;1.60;;
24859;SDS011;12936;52.006;4.350;2022-09-01T03:56:53;2.83;;;1.30;;
24859;SDS011;12936;52.006;4.350;2022-09-01T03:59:24;6.90;;;1.63;;
24859;SDS011;12936;52.006;4.350;2022-09-01T04:01:55;1.70;;;1.20;;
24859;SDS011;12936;52.006;4.350;2022-09-01T04:04:24;3.10;;;1.40;;
24859;SDS011;12936;52.006;4.350;2022-09-01T04:06:54;2.08;;;1.15;;
24859;SDS011;12936;52.006;4.350;2022-09-01T04:09:22;4.97;;;1.30;;
24859;SDS011;12936;52.006;4.350;2022-09-01T04:11:51;1.75;;;1.40;;
24859;SDS011;12936;52.006;4.350;2022-09-01T04:14:19;3.95;;;1.58;;
24859;SDS011;12936;52.006;4.350;2022-09-01T04:16:47;2.85;;;1.52;;
24859;SDS011;12936;52.006;4.350;2022-09-01T04:19:35;4.53;;;1.58;;
24859;SDS011;12936;52.006;4.350;2022-09-01T04:22:06;4.50;;;1.67;;
24859;SDS011;12936;52.006;4.350;2022-09-01T04:24:38;5.78;;;1.88;;
24859;SDS011;12936;52.006;4.350;2022-09-01T04:27:12;2.22;;;1.42;;
24859;SDS011;12936;52.006;4.350;2022-09-01T04:29:43;3.03;;;1.35;;
24859;SDS011;12936;52.006;4.350;2022-09-01T04:32:12;3.45;;;1.60;;
24859;SDS011;12936;52.006;4.350;2022-09-01T04:34:41;3.55;;;1.70;;
24859;SDS011;12936;52.006;4.350;2022-09-01T04:37:11;3.33;;;1.35;;
24859;SDS011;12936;52.006;4.350;2022-09-01T04:39:41;4.20;;;1.70;;
24859;SDS011;12936;52.006;4.350;2022-09-01T04:42:17;5.15;;;1.65;;
24859;SDS011;12936;52.006;4.350;2022-09-01T04:44:49;3.75;;;1.55;;
24859;SDS011;12936;52.006;4.350;2022-09-01T04:47:19;3.35;;;1.45;;
24859;SDS011;12936;52.006;4.350;2022-09-01T04:50:02;2.47;;;1.70;;
24859;SDS011;12936;52.006;4.350;2022-09-01T04:52:39;5.20;;;1.90;;
24859;SDS011;12936;52.006;4.350;2022-09-01T04:55:09;5.22;;;1.80;;
24859;SDS011;12936;52.006;4.350;2022-09-01T04:57:43;3.00;;;1.50;;
24859;SDS011;12936;52.006;4.350;2022-09-01T05:00:15;5.82;;;1.63;;
24859;SDS011;12936;52.006;4.350;2022-09-01T05:02:48;3.63;;;1.58;;
24859;SDS011;12936;52.006;4.350;2022-09-01T05:05:18;5.35;;;1.80;;
24859;SDS011;12936;52.006;4.350;2022-09-01T05:07:48;7.50;;;1.60;;
24859;SDS011;12936;52.006;4.350;2022-09-01T05:10:19;3.83;;;1.67;;
24859;SDS011;12936;52.006;4.350;2022-09-01T05:12:48;6.43;;;2.08;;
24859;SDS011;12936;52.006;4.350;2022-09-01T05:15:17;4.22;;;1.63;;
24859;SDS011;12936;52.006;4.350;2022-09-01T05:17:46;4.68;;;1.80;;
24859;SDS011;12936;52.006;4.350;2022-09-01T05:20:14;2.28;;;1.70;;
24859;SDS011;12936;52.006;4.350;2022-09-01T05:22:45;4.90;;;1.48;;
24859;SDS011;12936;52.006;4.350;2022-09-01T05:25:16;6.38;;;1.80;;
24859;SDS011;12936;52.006;4.350;2022-09-01T05:27:45;2.95;;;1.67;;
24859;SDS011;12936;52.006;4.350;2022-09-01T05:30:15;4.10;;;1.80;;
24859;SDS011;12936;52.006;4.350;2022-09-01T05:32:44;5.78;;;1.80;;
24859;SDS011;12936;52.006;4.350;2022-09-01T05:35:14;3.67;;;1.50;;
24859;SDS011;12936;52.006;4.350;2022-09-01T05:37:43;4.65;;;1.88;;
24859;SDS011;12936;52.006;4.350;2022-09-01T05:40:12;4.43;;;1.73;;
24859;SDS011;12936;52.006;4.350;2022-09-01T05:42:43;4.40;;;1.88;;
24859;SDS011;12936;52.006;4.350;2022-09-01T05:45:11;6.72;;;1.70;;
24859;SDS011;12936;52.006;4.350;2022-09-01T05:47:40;5.22;;;1.73;;
24859;SDS011;12936;52.006;4.350;2022-09-01T05:50:09;3.90;;;1.73;;
24859;SDS011;12936;52.006;4.350;2022-09-01T05:52:44;4.60;;;1.77;;
24859;SDS011;12936;52.006;4.350;2022-09-01T05:55:14;9.73;;;1.88;;
24859;SDS011;12936;52.006;4.350;2022-09-01T05:57:44;3.83;;;1.52;;
24859;SDS011;12936;52.006;4.350;2022-09-01T06:00:14;7.40;;;1.75;;
24859;SDS011;12936;52.006;4.350;2022-09-01T06:02:43;4.05;;;1.58;;
24859;SDS011;12936;52.006;4.350;2022-09-01T06:05:12;4.93;;;1.95;;
24859;SDS011;12936;52.006;4.350;2022-09-01T06:07:41;4.93;;;1.77;;
24859;SDS011;12936;52.006;4.350;2022-09-01T06:10:09;5.20;;;2.00;;
24859;SDS011;12936;52.006;4.350;2022-09-01T06:12:38;4.05;;;1.75;;
24859;SDS011;12936;52.006;4.350;2022-09-01T06:15:09;20.02;;;4.68;;
24859;SDS011;12936;52.006;4.350;2022-09-01T06:17:41;7.82;;;2.50;;
24859;SDS011;12936;52.006;4.350;2022-09-01T06:20:11;5.28;;;2.13;;
24859;SDS011;12936;52.006;4.350;2022-09-01T06:22:43;3.33;;;1.70;;
24859;SDS011;12936;52.006;4.350;2022-09-01T06:25:13;7.43;;;1.85;;
24859;SDS011;12936;52.006;4.350;2022-09-01T06:27:42;6.32;;;1.63;;
24859;SDS011;12936;52.006;4.350;2022-09-01T06:30:13;4.55;;;2.03;;
24859;SDS011;12936;52.006;4.350;2022-09-01T06:32:48;2.45;;;1.83;;
24859;SDS011;12936;52.006;4.350;2022-09-01T06:35:17;6.22;;;1.85;;
24859;SDS011;12936;52.006;4.350;2022-09-01T06:37:45;8.27;;;1.85;;
24859;SDS011;12936;52.006;4.350;2022-09-01T06:40:14;11.18;;;2.53;;
24859;SDS011;12936;52.006;4.350;2022-09-01T06:42:44;4.43;;;1.77;;
24859;SDS011;12936;52.006;4.350;2022-09-01T06:45:14;3.47;;;1.77;;
24859;SDS011;12936;52.006;4.350;2022-09-01T06:47:43;8.20;;;2.08;;
24859;SDS011;12936;52.006;4.350;2022-09-01T06:50:13;2.72;;;1.75;;
24859;SDS011;12936;52.006;4.350;2022-09-01T06:53:01;3.15;;;2.03;;
24859;SDS011;12936;52.006;4.350;2022-09-01T06:55:56;2.28;;;1.85;;
24859;SDS011;12936;52.006;4.350;2022-09-01T06:58:24;3.17;;;2.10;;
24859;SDS011;12936;52.006;4.350;2022-09-01T07:00:54;4.95;;;1.80;;
24859;SDS011;12936;52.006;4.350;2022-09-01T07:03:22;7.35;;;2.00;;
24859;SDS011;12936;52.006;4.350;2022-09-01T07:05:51;5.25;;;2.00;;
24859;SDS011;12936;52.006;4.350;2022-09-01T07:08:28;3.13;;;1.90;;
24859;SDS011;12936;52.006;4.350;2022-09-01T07:10:58;3.30;;;1.70;;
24859;SDS011;12936;52.006;4.350;2022-09-01T07:13:47;8.55;;;2.47;;
24859;SDS011;12936;52.006;4.350;2022-09-01T07:16:37;4.15;;;2.05;;
24859;SDS011;12936;52.006;4.350;2022-09-01T07:19:18;7.28;;;2.20;;
24859;SDS011;12936;52.006;4.350;2022-09-01T07:21:46;4.53;;;1.80;;
24859;SDS011;12936;52.006;4.350;2022-09-01T07:24:35;6.22;;;2.38;;
24859;SDS011;12936;52.006;4.350;2022-09-01T07:27:05;4.82;;;2.13;;
24859;SDS011;12936;52.006;4.350;2022-09-01T07:29:36;4.15;;;2.05;;
24859;SDS011;12936;52.006;4.350;2022-09-01T07:32:08;6.40;;;1.90;;
24859;SDS011;12936;52.006;4.350;2022-09-01T07:34:59;4.68;;;2.58;;
24859;SDS011;12936;52.006;4.350;2022-09-01T07:37:28;5.45;;;2.13;;
24859;SDS011;12936;52.006;4.350;2022-09-01T07:40:18;4.05;;;2.10;;
24859;SDS011;12936;52.006;4.350;2022-09-01T07:43:12;6.65;;;2.20;;
24859;SDS011;12936;52.006;4.350;2022-09-01T07:45:42;10.85;;;2.30;;
24859;SDS011;12936;52.006;4.350;2022-09-01T07:48:26;3.90;;;2.13;;
24859;SDS011;12936;52.006;4.350;2022-09-01T07:51:15;7.32;;;2.13;;
24859;SDS011;12936;52.006;4.350;2022-09-01T07:54:02;7.78;;;2.30;;
24859;SDS011;12936;52.006;4.350;2022-09-01T07:56:30;7.88;;;2.30;;
24859;SDS011;12936;52.006;4.350;2022-09-01T07:59:05;7.65;;;2.30;;
24859;SDS011;12936;52.006;4.350;2022-09-01T08:01:40;6.43;;;2.28;;
24859;SDS011;12936;52.006;4.350;2022-09-01T08:04:10;5.00;;;2.35;;
24859;SDS011;12936;52.006;4.350;2022-09-01T08:06:39;8.15;;;2.30;;
24859;SDS011;12936;52.006;4.350;2022-09-01T08:09:07;10.38;;;2.17;;
24859;SDS011;12936;52.006;4.350;2022-09-01T08:11:52;8.07;;;2.45;;
24859;SDS011;12936;52.006;4.350;2022-09-01T08:14:28;4.55;;;2.50;;
24859;SDS011;12936;52.006;4.350;2022-09-01T08:17:00;6.50;;;2.53;;
24859;SDS011;12936;52.006;4.350;2022-09-01T08:19:50;5.97;;;2.35;;
24859;SDS011;12936;52.006;4.350;2022-09-01T08:22:19;14.77;;;2.35;;
24859;SDS011;12936;52.006;4.350;2022-09-01T08:24:49;18.55;;;2.50;;
24859;SDS011;12936;52.006;4.350;2022-09-01T08:27:18;5.20;;;2.33;;
24859;SDS011;12936;52.006;4.350;2022-09-01T08:29:46;7.25;;;2.58;;
24859;SDS011;12936;52.006;4.350;2022-09-01T08:32:15;7.15;;;2.25;;
24859;SDS011;12936;52.006;4.350;2022-09-01T08:34:43;11.23;;;2.47;;
24859;SDS011;12936;52.006;4.350;2022-09-01T08:37:13;16.60;;;2.65;;
24859;SDS011;12936;52.006;4.350;2022-09-01T08:39:41;5.68;;;2.03;;
24859;SDS011;12936;52.006;4.350;2022-09-01T08:42:15;5.57;;;2.13;;
24859;SDS011;12936;52.006;4.350;2022-09-01T08:44:49;5.57;;;2.03;;
24859;SDS011;12936;52.006;4.350;2022-09-01T08:47:20;3.47;;;1.70;;
24859;SDS011;12936;52.006;4.350;2022-09-01T08:50:08;6.65;;;2.10;;
24859;SDS011;12936;52.006;4.350;2022-09-01T08:52:39;6.63;;;1.92;;
24859;SDS011;12936;52.006;4.350;2022-09-01T08:55:11;4.45;;;2.33;;
24859;SDS011;12936;52.006;4.350;2022-09-01T08:57:43;3.47;;;1.98;;
24859;SDS011;12936;52.006;4.350;2022-09-01T09:00:14;6.85;;;2.33;;
24859;SDS011;12936;52.006;4.350;2022-09-01T09:02:50;3.17;;;1.70;;
24859;SDS011;12936;52.006;4.350;2022-09-01T09:05:29;5.80;;;2.30;;
24859;SDS011;12936;52.006;4.350;2022-09-01T09:08:05;13.50;;;2.47;;
24859;SDS011;12936;52.006;4.350;2022-09-01T09:10:37;11.75;;;2.15;;
24859;SDS011;12936;52.006;4.350;2022-09-01T09:13:09;4.53;;;2.50;;
24859;SDS011;12936;52.006;4.350;2022-09-01T09:15:42;12.10;;;2.10;;
24859;SDS011;12936;52.006;4.350;2022-09-01T09:18:13;4.15;;;1.98;;
24859;SDS011;12936;52.006;4.350;2022-09-01T09:21:05;8.85;;;2.00;;
24859;SDS011;12936;52.006;4.350;2022-09-01T09:23:38;19.80;;;2.15;;
24859;SDS011;12936;52.006;4.350;2022-09-01T09:26:09;4.80;;;2.10;;
24859;SDS011;12936;52.006;4.350;2022-09-01T09:28:47;6.22;;;1.75;;
24859;SDS011;12936;52.006;4.350;2022-09-01T09:31:26;8.38;;;2.10;;
24859;SDS011;12936;52.006;4.350;2022-09-01T09:33:54;5.97;;;1.52;;
24859;SDS011;12936;52.006;4.350;2022-09-01T09:36:28;3.40;;;1.83;;
24859;SDS011;12936;52.006;4.350;2022-09-01T09:39:04;6.53;;;1.73;;
24859;SDS011;12936;52.006;4.350;2022-09-01T09:41:33;6.68;;;1.85;;
24859;SDS011;12936;52.006;4.350;2022-09-01T09:44:04;2.92;;;1.55;;
24859;SDS011;12936;52.006;4.350;2022-09-01T09:46:37;5.70;;;1.90;;
24859;SDS011;12936;52.006;4.350;2022-09-01T09:49:11;40.38;;;3.60;;
24859;SDS011;12936;52.006;4.350;2022-09-01T09:51:40;8.02;;;2.00;;
24859;SDS011;12936;52.006;4.350;2022-09-01T09:54:11;2.95;;;1.90;;
24859;SDS011;12936;52.006;4.350;2022-09-01T09:56:39;3.15;;;2.13;;
24859;SDS011;12936;52.006;4.350;2022-09-01T10:02:22;5.05;;;2.22;;
24859;SDS011;12936;52.006;4.350;2022-09-01T10:04:53;11.02;;;1.85;;
24859;SDS011;12936;52.006;4.350;2022-09-01T10:07:23;5.20;;;1.63;;
24859;SDS011;12936;52.006;4.350;2022-09-01T10:09:54;17.77;;;2.05;;
24859;SDS011;12936;52.006;4.350;2022-09-01T10:12:23;17.60;;;1.98;;
24859;SDS011;12936;52.006;4.350;2022-09-01T10:14:53;9.73;;;1.77;;
24859;SDS011;12936;52.006;4.350;2022-09-01T10:17:23;11.95;;;2.40;;
24859;SDS011;12936;52.006;4.350;2022-09-01T10:19:53;6.72;;;1.63;;
24859;SDS011;12936;52.006;4.350;2022-09-01T10:22:23;5.07;;;1.40;;
24859;SDS011;12936;52.006;4.350;2022-09-01T10:24:53;3.65;;;1.45;;
24859;SDS011;12936;52.006;4.350;2022-09-01T10:27:22;21.52;;;2.00;;
24859;SDS011;12936;52.006;4.350;2022-09-01T10:29:53;7.10;;;1.60;;
24859;SDS011;12936;52.006;4.350;2022-09-01T10:32:44;7.53;;;1.23;;
24859;SDS011;12936;52.006;4.350;2022-09-01T10:35:21;4.78;;;1.40;;
24859;SDS011;12936;52.006;4.350;2022-09-01T10:37:50;18.27;;;1.73;;
24859;SDS011;12936;52.006;4.350;2022-09-01T10:40:34;27.75;;;2.42;;
24859;SDS011;12936;52.006;4.350;2022-09-01T10:43:22;20.95;;;1.60;;
24859;SDS011;12936;52.006;4.350;2022-09-01T10:45:51;7.28;;;1.48;;
24859;SDS011;12936;52.006;4.350;2022-09-01T10:48:31;15.15;;;1.63;;
24859;SDS011;12936;52.006;4.350;2022-09-01T10:57:05;1.98;;;1.00;;
24859;SDS011;12936;52.006;4.350;2022-09-01T10:59:37;10.15;;;1.10;;
24859;SDS011;12936;52.006;4.350;2022-09-01T11:02:20;4.13;;;0.82;;
24859;SDS011;12936;52.006;4.350;2022-09-01T11:05:13;4.53;;;1.02;;
24859;SDS011;12936;52.006;4.350;2022-09-01T11:07:42;1.25;;;0.80;;
24859;SDS011;12936;52.006;4.350;2022-09-01T11:10:47;2.83;;;1.02;;
24859;SDS011;12936;52.006;4.350;2022-09-01T11:13:30;1.33;;;0.80;;
24859;SDS011;12936;52.006;4.350;2022-09-01T11:22:04;2.13;;;1.00;;
24859;SDS011;12936;52.006;4.350;2022-09-01T11:30:32;11.25;;;1.20;;
24859;SDS011;12936;52.006;4.350;2022-09-01T11:33:05;6.45;;;1.50;;
24859;SDS011;12936;52.006;4.350;2022-09-01T11:35:36;3.17;;;0.82;;
24859;SDS011;12936;52.006;4.350;2022-09-01T11:38:04;4.28;;;0.90;;
24859;SDS011;12936;52.006;4.350;2022-09-01T11:40:34;6.05;;;1.00;;
24859;SDS011;12936;52.006;4.350;2022-09-01T11:43:03;4.28;;;1.00;;
24859;SDS011;12936;52.006;4.350;2022-09-01T11:45:49;11.15;;;1.40;;
24859;SDS011;12936;52.006;4.350;2022-09-01T11:48:23;5.45;;;1.00;;
24859;SDS011;12936;52.006;4.350;2022-09-01T11:50:55;10.43;;;0.82;;
24859;SDS011;12936;52.006;4.350;2022-09-01T11:53:25;4.07;;;1.02;;
24859;SDS011;12936;52.006;4.350;2022-09-01T11:55:54;14.80;;;1.88;;
24859;SDS011;12936;52.006;4.350;2022-09-01T11:58:28;2.97;;;1.10;;
24859;SDS011;12936;52.006;4.350;2022-09-01T12:01:11;1.77;;;1.20;;
24859;SDS011;12936;52.006;4.350;2022-09-01T12:03:41;2.67;;;0.90;;
24859;SDS011;12936;52.006;4.350;2022-09-01T12:06:10;2.10;;;1.02;;
24859;SDS011;12936;52.006;4.350;2022-09-01T12:08:40;1.92;;;1.15;;
24859;SDS011;12936;52.006;4.350;2022-09-01T12:11:11;2.42;;;1.20;;
24859;SDS011;12936;52.006;4.350;2022-09-01T12:13:40;2.80;;;1.10;;
24859;SDS011;12936;52.006;4.350;2022-09-01T12:16:22;11.27;;;1.10;;
24859;SDS011;12936;52.006;4.350;2022-09-01T12:18:51;3.92;;;1.10;;
24859;SDS011;12936;52.006;4.350;2022-09-01T12:21:21;2.25;;;1.00;;
24859;SDS011;12936;52.006;4.350;2022-09-01T12:23:50;4.50;;;0.95;;
24859;SDS011;12936;52.006;4.350;2022-09-01T12:26:19;1.73;;;1.10;;
24859;SDS011;12936;52.006;4.350;2022-09-01T12:28:49;2.17;;;1.05;;
24859;SDS011;12936;52.006;4.350;2022-09-01T12:31:20;3.80;;;1.13;;
24859;SDS011;12936;52.006;4.350;2022-09-01T12:33:51;6.88;;;1.00;;
24859;SDS011;12936;52.006;4.350;2022-09-01T12:36:21;12.15;;;1.40;;
24859;SDS011;12936;52.006;4.350;2022-09-01T12:38:50;3.10;;;1.00;;
24859;SDS011;12936;52.006;4.350;2022-09-01T12:41:23;6.07;;;1.00;;
24859;SDS011;12936;52.006;4.350;2022-09-01T12:43:54;3.60;;;1.15;;
24859;SDS011;12936;52.006;4.350;2022-09-01T12:46:41;3.90;;;0.90;;
24859;SDS011;12936;52.006;4.350;2022-09-01T12:49:21;1.80;;;1.00;;
24859;SDS011;12936;52.006;4.350;2022-09-01T12:54:41;3.58;;;0.88;;
24859;SDS011;12936;52.006;4.350;2022-09-01T12:57:09;2.75;;;1.00;;
24859;SDS011;12936;52.006;4.350;2022-09-01T12:59:39;6.07;;;0.93;;
24859;SDS011;12936;52.006;4.350;2022-09-01T13:02:26;24.75;;;2.33;;
24859;SDS011;12936;52.006;4.350;2022-09-01T13:04:56;3.67;;;1.13;;
24859;SDS011;12936;52.006;4.350;2022-09-01T13:07:44;7.82;;;1.08;;
24859;SDS011;12936;52.006;4.350;2022-09-01T13:10:13;6.15;;;0.80;;
24859;SDS011;12936;52.006;4.350;2022-09-01T13:12:41;4.22;;;1.00;;
24859;SDS011;12936;52.006;4.350;2022-09-01T13:15:11;12.05;;;1.40;;
24859;SDS011;12936;52.006;4.350;2022-09-01T13:17:44;7.07;;;1.20;;
24859;SDS011;12936;52.006;4.350;2022-09-01T13:20:14;3.50;;;0.77;;
24859;SDS011;12936;52.006;4.350;2022-09-01T13:22:42;1.80;;;0.90;;
24859;SDS011;12936;52.006;4.350;2022-09-01T13:25:11;2.40;;;1.00;;
24859;SDS011;12936;52.006;4.350;2022-09-01T13:27:41;1.65;;;0.80;;
24859;SDS011;12936;52.006;4.350;2022-09-01T13:30:13;3.35;;;0.80;;
24859;SDS011;12936;52.006;4.350;2022-09-01T13:32:42;3.85;;;1.05;;
24859;SDS011;12936;52.006;4.350;2022-09-01T13:35:32;6.00;;;1.00;;
24859;SDS011;12936;52.006;4.350;2022-09-01T13:38:00;3.90;;;1.00;;
24859;SDS011;12936;52.006;4.350;2022-09-01T13:40:29;2.55;;;1.02;;
24859;SDS011;12936;52.006;4.350;2022-09-01T13:42:57;3.80;;;0.90;;
24859;SDS011;12936;52.006;4.350;2022-09-01T13:45:26;1.05;;;0.70;;
24859;SDS011;12936;52.006;4.350;2022-09-01T13:47:55;1.10;;;0.70;;
24859;SDS011;12936;52.006;4.350;2022-09-01T13:50:46;0.77;;;0.63;;
24859;SDS011;12936;52.006;4.350;2022-09-01T13:53:35;4.70;;;0.70;;
24859;SDS011;12936;52.006;4.350;2022-09-01T13:56:04;1.60;;;0.70;;
24859;SDS011;12936;52.006;4.350;2022-09-01T13:58:32;1.83;;;1.00;;
24859;SDS011;12936;52.006;4.350;2022-09-01T14:01:00;1.67;;;0.68;;
24859;SDS011;12936;52.006;4.350;2022-09-01T14:03:30;3.38;;;0.80;;
24859;SDS011;12936;52.006;4.350;2022-09-01T14:06:00;1.48;;;0.82;;
24859;SDS011;12936;52.006;4.350;2022-09-01T14:08:28;1.90;;;0.80;;
24859;SDS011;12936;52.006;4.350;2022-09-01T14:10:58;4.00;;;1.08;;
24859;SDS011;12936;52.006;4.350;2022-09-01T14:13:28;6.10;;;0.98;;
24859;SDS011;12936;52.006;4.350;2022-09-01T14:15:57;3.08;;;0.75;;
24859;SDS011;12936;52.006;4.350;2022-09-01T14:18:26;8.55;;;1.85;;
24859;SDS011;12936;52.006;4.350;2022-09-01T14:20:59;5.93;;;0.93;;
24859;SDS011;12936;52.006;4.350;2022-09-01T14:23:28;2.88;;;1.20;;
24859;SDS011;12936;52.006;4.350;2022-09-01T14:25:56;7.05;;;1.25;;
24859;SDS011;12936;52.006;4.350;2022-09-01T14:28:25;5.38;;;0.70;;
24859;SDS011;12936;52.006;4.350;2022-09-01T14:30:53;6.03;;;0.93;;
24859;SDS011;12936;52.006;4.350;2022-09-01T14:33:21;3.70;;;0.98;;
24859;SDS011;12936;52.006;4.350;2022-09-01T14:35:52;2.75;;;0.90;;
24859;SDS011;12936;52.006;4.350;2022-09-01T14:38:22;8.00;;;1.15;;
24859;SDS011;12936;52.006;4.350;2022-09-01T14:40:50;1.02;;;0.60;;
24859;SDS011;12936;52.006;4.350;2022-09-01T14:43:18;0.63;;;0.63;;
24859;SDS011;12936;52.006;4.350;2022-09-01T14:45:47;2.83;;;0.82;;
24859;SDS011;12936;52.006;4.350;2022-09-01T14:48:16;9.23;;;1.30;;
24859;SDS011;12936;52.006;4.350;2022-09-01T14:50:46;1.45;;;0.80;;
24859;SDS011;12936;52.006;4.350;2022-09-01T14:53:16;12.63;;;1.00;;
24859;SDS011;12936;52.006;4.350;2022-09-01T14:55:46;12.30;;;1.00;;
24859;SDS011;12936;52.006;4.350;2022-09-01T14:58:21;4.30;;;1.00;;
24859;SDS011;12936;52.006;4.350;2022-09-01T15:00:49;2.05;;;0.70;;
24859;SDS011;12936;52.006;4.350;2022-09-01T15:03:17;3.63;;;1.00;;
24859;SDS011;12936;52.006;4.350;2022-09-01T15:05:48;4.50;;;0.85;;
24859;SDS011;12936;52.006;4.350;2022-09-01T15:08:16;3.47;;;0.70;;
24859;SDS011;12936;52.006;4.350;2022-09-01T15:10:46;3.13;;;0.80;;
24859;SDS011;12936;52.006;4.350;2022-09-01T15:13:14;2.85;;;0.82;;
24859;SDS011;12936;52.006;4.350;2022-09-01T15:15:43;0.85;;;0.70;;
24859;SDS011;12936;52.006;4.350;2022-09-01T15:18:12;1.92;;;0.73;;
24859;SDS011;12936;52.006;4.350;2022-09-01T15:20:40;2.22;;;0.82;;
24859;SDS011;12936;52.006;4.350;2022-09-01T15:23:12;1.20;;;0.63;;
24859;SDS011;12936;52.006;4.350;2022-09-01T15:25:41;6.88;;;0.93;;
24859;SDS011;12936;52.006;4.350;2022-09-01T15:28:11;1.92;;;0.77;;
24859;SDS011;12936;52.006;4.350;2022-09-01T15:30:40;1.40;;;0.82;;
24859;SDS011;12936;52.006;4.350;2022-09-01T15:33:11;3.00;;;0.68;;
24859;SDS011;12936;52.006;4.350;2022-09-01T15:35:41;3.08;;;0.80;;
24859;SDS011;12936;52.006;4.350;2022-09-01T15:38:09;3.15;;;0.75;;